sensor_id;sensor_type;location;lat;lon;timestamp;temperature;humidity
13589;DHT22;6865;52.552;13.434;2023-03-01T00:01:39;-1.10;99.90
13589;DHT22;6865;52.552;13.434;2023-03-01T00:04:06;-1.10;99.90
13589;DHT22;6865;52.552;13.434;2023-03-01T00:06:33;-1.10;99.90
13589;DHT22;6865;52.552;13.434;2023-03-01T00:08:59;-1.20;99.90
13589;DHT22;6865;52.552;13.434;2023-03-01T00:11:28;-1.20;99.90
13589;DHT22;6865;52.552;13.434;2023-03-01T00:13:57;-1.20;99.90
13589;DHT22;6865;52.552;13.434;2023-03-01T00:16:41;-1.20;99.90
13589;DHT22;6865;52.552;13.434;2023-03-01T00:19:11;-1.20;99.90
13589;DHT22;6865;52.552;13.434;2023-03-01T00:21:38;-1.20;99.90
13589;DHT22;6865;52.552;13.434;2023-03-01T00:24:05;-1.30;99.90
13589;DHT22;6865;52.552;13.434;2023-03-01T00:26:32;-1.20;99.90
13589;DHT22;6865;52.552;13.434;2023-03-01T00:28:59;-1.30;99.90
13589;DHT22;6865;52.552;13.434;2023-03-01T00:31:28;-1.30;99.90
13589;DHT22;6865;52.552;13.434;2023-03-01T00:33:57;-1.30;99.90
13589;DHT22;6865;52.552;13.434;2023-03-01T00:36:26;0.30;99.90
13589;DHT22;6865;52.552;13.434;2023-03-01T00:38:53;-1.30;99.90
13589;DHT22;6865;52.552;13.434;2023-03-01T00:41:21;-1.20;99.90
13589;DHT22;6865;52.552;13.434;2023-03-01T00:43:49;-1.10;99.90
13589;DHT22;6865;52.552;13.434;2023-03-01T00:46:18;-0.90;99.90
13589;DHT22;6865;52.552;13.434;2023-03-01T00:48:45;-0.90;99.90
13589;DHT22;6865;52.552;13.434;2023-03-01T00:51:18;-0.80;99.90
13589;DHT22;6865;52.552;13.434;2023-03-01T00:53:45;-0.80;99.90
13589;DHT22;6865;52.552;13.434;2023-03-01T00:56:13;-0.70;99.90
13589;DHT22;6865;52.552;13.434;2023-03-01T00:58:41;-0.70;99.90
13589;DHT22;6865;52.552;13.434;2023-03-01T01:01:12;-0.70;99.90
13589;DHT22;6865;52.552;13.434;2023-03-01T01:03:48;-0.80;99.90
13589;DHT22;6865;52.552;13.434;2023-03-01T01:06:21;-0.90;99.90
13589;DHT22;6865;52.552;13.434;2023-03-01T01:08:48;-1.00;99.90
13589;DHT22;6865;52.552;13.434;2023-03-01T01:11:16;-1.00;99.90
13589;DHT22;6865;52.552;13.434;2023-03-01T01:13:44;-1.00;99.90
13589;DHT22;6865;52.552;13.434;2023-03-01T01:16:12;-1.10;99.90
13589;DHT22;6865;52.552;13.434;2023-03-01T01:18:38;-1.30;99.90
13589;DHT22;6865;52.552;13.434;2023-03-01T01:21:08;-1.10;99.90
13589;DHT22;6865;52.552;13.434;2023-03-01T01:23:36;-1.10;99.90
13589;DHT22;6865;52.552;13.434;2023-03-01T01:26:16;-1.10;99.90
13589;DHT22;6865;52.552;13.434;2023-03-01T01:28:43;-1.20;99.90
13589;DHT22;6865;52.552;13.434;2023-03-01T01:31:10;-1.20;99.90
13589;DHT22;6865;52.552;13.434;2023-03-01T01:33:40;-1.20;99.90
13589;DHT22;6865;52.552;13.434;2023-03-01T01:36:08;-2.60;99.90
13589;DHT22;6865;52.552;13.434;2023-03-01T01:38:36;-1.30;99.90
13589;DHT22;6865;52.552;13.434;2023-03-01T01:41:04;-1.40;99.90
13589;DHT22;6865;52.552;13.434;2023-03-01T01:43:35;-1.40;99.90
13589;DHT22;6865;52.552;13.434;2023-03-01T01:46:05;-1.40;99.90
13589;DHT22;6865;52.552;13.434;2023-03-01T01:48:41;-1.40;99.90
13589;DHT22;6865;52.552;13.434;2023-03-01T01:51:22;-1.50;99.90
13589;DHT22;6865;52.552;13.434;2023-03-01T01:53:54;-1.50;99.90
13589;DHT22;6865;52.552;13.434;2023-03-01T01:56:23;-1.50;99.90
13589;DHT22;6865;52.552;13.434;2023-03-01T01:58:50;-1.50;99.90
13589;DHT22;6865;52.552;13.434;2023-03-01T02:01:18;-1.60;99.90
13589;DHT22;6865;52.552;13.434;2023-03-01T02:03:46;-1.60;99.90
13589;DHT22;6865;52.552;13.434;2023-03-01T02:08:47;-1.60;99.90
13589;DHT22;6865;52.552;13.434;2023-03-01T02:11:15;-1.60;99.90
13589;DHT22;6865;52.552;13.434;2023-03-01T02:13:42;-1.70;99.90
13589;DHT22;6865;52.552;13.434;2023-03-01T02:16:11;-1.70;99.90
13589;DHT22;6865;52.552;13.434;2023-03-01T02:18:40;-1.70;99.90
13589;DHT22;6865;52.552;13.434;2023-03-01T02:21:13;-1.60;99.90
13589;DHT22;6865;52.552;13.434;2023-03-01T02:23:43;-1.60;99.90
13589;DHT22;6865;52.552;13.434;2023-03-01T02:26:37;-1.60;99.90
13589;DHT22;6865;52.552;13.434;2023-03-01T02:29:07;-1.60;99.90
13589;DHT22;6865;52.552;13.434;2023-03-01T02:31:33;-1.60;99.90
13589;DHT22;6865;52.552;13.434;2023-03-01T02:34:13;-1.70;99.90
13589;DHT22;6865;52.552;13.434;2023-03-01T02:36:47;-1.80;99.90
13589;DHT22;6865;52.552;13.434;2023-03-01T02:39:20;-1.90;99.90
13589;DHT22;6865;52.552;13.434;2023-03-01T02:41:52;-1.90;99.90
13589;DHT22;6865;52.552;13.434;2023-03-01T02:44:20;-1.90;99.90
13589;DHT22;6865;52.552;13.434;2023-03-01T02:46:50;-2.00;99.90
13589;DHT22;6865;52.552;13.434;2023-03-01T02:49:32;-2.00;99.90
13589;DHT22;6865;52.552;13.434;2023-03-01T02:54:43;-2.00;99.90
13589;DHT22;6865;52.552;13.434;2023-03-01T02:57:12;-2.00;99.90
13589;DHT22;6865;52.552;13.434;2023-03-01T02:59:40;-2.00;99.90
13589;DHT22;6865;52.552;13.434;2023-03-01T03:02:17;-2.10;99.90
13589;DHT22;6865;52.552;13.434;2023-03-01T03:04:47;-2.10;99.90
13589;DHT22;6865;52.552;13.434;2023-03-01T03:07:13;-2.20;99.90
13589;DHT22;6865;52.552;13.434;2023-03-01T03:09:40;-1.90;99.90
13589;DHT22;6865;52.552;13.434;2023-03-01T03:12:07;-2.10;99.90
13589;DHT22;6865;52.552;13.434;2023-03-01T03:14:33;-2.10;99.90
13589;DHT22;6865;52.552;13.434;2023-03-01T03:17:01;-2.10;99.90
13589;DHT22;6865;52.552;13.434;2023-03-01T03:19:32;-2.10;99.90
13589;DHT22;6865;52.552;13.434;2023-03-01T03:21:59;-2.10;99.90
13589;DHT22;6865;52.552;13.434;2023-03-01T03:24:26;-2.10;99.90
13589;DHT22;6865;52.552;13.434;2023-03-01T03:26:53;-2.10;99.90
13589;DHT22;6865;52.552;13.434;2023-03-01T03:29:20;-2.00;99.90
13589;DHT22;6865;52.552;13.434;2023-03-01T03:31:46;-1.90;99.90
13589;DHT22;6865;52.552;13.434;2023-03-01T03:34:13;-2.20;99.90
13589;DHT22;6865;52.552;13.434;2023-03-01T03:36:44;-1.60;99.90
13589;DHT22;6865;52.552;13.434;2023-03-01T03:39:10;-2.00;99.90
13589;DHT22;6865;52.552;13.434;2023-03-01T03:41:37;-2.10;99.90
13589;DHT22;6865;52.552;13.434;2023-03-01T03:44:04;-2.10;99.90
13589;DHT22;6865;52.552;13.434;2023-03-01T03:46:30;-2.20;99.90
13589;DHT22;6865;52.552;13.434;2023-03-01T03:48:58;-2.20;99.90
13589;DHT22;6865;52.552;13.434;2023-03-01T03:51:24;-2.20;99.90
13589;DHT22;6865;52.552;13.434;2023-03-01T03:53:51;-2.20;99.90
13589;DHT22;6865;52.552;13.434;2023-03-01T03:56:17;-2.20;99.90
13589;DHT22;6865;52.552;13.434;2023-03-01T03:58:44;-2.00;99.90
13589;DHT22;6865;52.552;13.434;2023-03-01T04:01:11;-2.20;99.90
13589;DHT22;6865;52.552;13.434;2023-03-01T04:03:37;-2.20;99.90
13589;DHT22;6865;52.552;13.434;2023-03-01T04:06:04;-2.30;99.90
13589;DHT22;6865;52.552;13.434;2023-03-01T04:08:32;-2.20;99.90
13589;DHT22;6865;52.552;13.434;2023-03-01T04:11:03;-2.20;99.90
13589;DHT22;6865;52.552;13.434;2023-03-01T04:13:52;-2.20;99.90
13589;DHT22;6865;52.552;13.434;2023-03-01T04:16:19;-2.20;99.90
13589;DHT22;6865;52.552;13.434;2023-03-01T04:18:46;-2.20;99.90
13589;DHT22;6865;52.552;13.434;2023-03-01T04:21:13;-2.50;99.90
13589;DHT22;6865;52.552;13.434;2023-03-01T04:23:40;-2.20;99.90
13589;DHT22;6865;52.552;13.434;2023-03-01T04:26:07;-1.90;99.90
13589;DHT22;6865;52.552;13.434;2023-03-01T04:28:37;-2.20;99.90
13589;DHT22;6865;52.552;13.434;2023-03-01T04:31:06;-2.20;99.90
13589;DHT22;6865;52.552;13.434;2023-03-01T04:33:41;-2.20;99.90
13589;DHT22;6865;52.552;13.434;2023-03-01T04:36:09;-2.20;99.90
13589;DHT22;6865;52.552;13.434;2023-03-01T04:38:38;-2.30;99.90
13589;DHT22;6865;52.552;13.434;2023-03-01T04:41:07;-2.30;99.90
13589;DHT22;6865;52.552;13.434;2023-03-01T04:43:34;-2.40;99.90
13589;DHT22;6865;52.552;13.434;2023-03-01T04:46:08;-2.60;99.90
13589;DHT22;6865;52.552;13.434;2023-03-01T04:48:36;-2.40;99.90
13589;DHT22;6865;52.552;13.434;2023-03-01T04:51:04;-2.50;99.90
13589;DHT22;6865;52.552;13.434;2023-03-01T04:53:32;-2.40;99.90
13589;DHT22;6865;52.552;13.434;2023-03-01T04:55:59;-2.40;99.90
13589;DHT22;6865;52.552;13.434;2023-03-01T04:58:27;-2.30;99.90
13589;DHT22;6865;52.552;13.434;2023-03-01T05:00:54;-2.20;99.90
13589;DHT22;6865;52.552;13.434;2023-03-01T05:03:21;-2.20;99.90
13589;DHT22;6865;52.552;13.434;2023-03-01T05:05:50;-2.10;99.90
13589;DHT22;6865;52.552;13.434;2023-03-01T05:08:17;-2.10;99.90
13589;DHT22;6865;52.552;13.434;2023-03-01T05:10:47;-2.10;99.90
13589;DHT22;6865;52.552;13.434;2023-03-01T05:13:15;-2.10;99.90
13589;DHT22;6865;52.552;13.434;2023-03-01T05:15:58;-2.10;99.90
13589;DHT22;6865;52.552;13.434;2023-03-01T05:18:26;-2.20;99.90
13589;DHT22;6865;52.552;13.434;2023-03-01T05:20:55;-2.30;99.90
13589;DHT22;6865;52.552;13.434;2023-03-01T05:23:22;-2.40;99.90
13589;DHT22;6865;52.552;13.434;2023-03-01T05:25:49;-2.40;99.90
13589;DHT22;6865;52.552;13.434;2023-03-01T05:28:19;-2.50;99.90
13589;DHT22;6865;52.552;13.434;2023-03-01T05:30:46;-2.50;99.90
13589;DHT22;6865;52.552;13.434;2023-03-01T05:33:13;-2.60;99.90
13589;DHT22;6865;52.552;13.434;2023-03-01T05:35:42;-2.90;99.90
13589;DHT22;6865;52.552;13.434;2023-03-01T05:38:09;-2.60;99.90
13589;DHT22;6865;52.552;13.434;2023-03-01T05:40:41;-2.60;99.90
13589;DHT22;6865;52.552;13.434;2023-03-01T05:43:08;-1.50;99.90
13589;DHT22;6865;52.552;13.434;2023-03-01T05:45:36;-2.50;99.90
13589;DHT22;6865;52.552;13.434;2023-03-01T05:48:04;-2.50;99.90
13589;DHT22;6865;52.552;13.434;2023-03-01T05:50:37;-2.50;99.90
13589;DHT22;6865;52.552;13.434;2023-03-01T05:53:11;-2.40;99.90
13589;DHT22;6865;52.552;13.434;2023-03-01T05:55:39;-2.40;99.90
13589;DHT22;6865;52.552;13.434;2023-03-01T05:58:09;-2.40;99.90
13589;DHT22;6865;52.552;13.434;2023-03-01T06:00:36;-2.40;99.90
13589;DHT22;6865;52.552;13.434;2023-03-01T06:03:03;-2.40;99.90
13589;DHT22;6865;52.552;13.434;2023-03-01T06:05:30;-2.30;99.90
13589;DHT22;6865;52.552;13.434;2023-03-01T06:08:00;-2.30;99.90
13589;DHT22;6865;52.552;13.434;2023-03-01T06:10:27;-2.20;99.90
13589;DHT22;6865;52.552;13.434;2023-03-01T06:12:54;-2.20;99.90
13589;DHT22;6865;52.552;13.434;2023-03-01T06:15:21;-2.20;99.90
13589;DHT22;6865;52.552;13.434;2023-03-01T06:17:49;-2.20;99.90
13589;DHT22;6865;52.552;13.434;2023-03-01T06:20:21;-2.20;99.90
13589;DHT22;6865;52.552;13.434;2023-03-01T06:22:49;-2.10;99.90
13589;DHT22;6865;52.552;13.434;2023-03-01T06:25:21;-2.00;99.90
13589;DHT22;6865;52.552;13.434;2023-03-01T06:27:48;-2.00;99.90
13589;DHT22;6865;52.552;13.434;2023-03-01T06:30:17;-1.90;99.90
13589;DHT22;6865;52.552;13.434;2023-03-01T06:32:44;-1.90;99.90
13589;DHT22;6865;52.552;13.434;2023-03-01T06:35:13;-1.90;99.90
13589;DHT22;6865;52.552;13.434;2023-03-01T06:37:40;-1.80;99.90
13589;DHT22;6865;52.552;13.434;2023-03-01T06:40:07;-1.70;99.90
13589;DHT22;6865;52.552;13.434;2023-03-01T06:42:35;-1.50;99.90
13589;DHT22;6865;52.552;13.434;2023-03-01T06:45:03;-1.40;99.90
13589;DHT22;6865;52.552;13.434;2023-03-01T06:47:30;-1.30;99.90
13589;DHT22;6865;52.552;13.434;2023-03-01T06:49:57;-1.20;99.90
13589;DHT22;6865;52.552;13.434;2023-03-01T06:52:23;-1.00;99.90
13589;DHT22;6865;52.552;13.434;2023-03-01T06:54:50;-0.90;99.90
13589;DHT22;6865;52.552;13.434;2023-03-01T06:57:17;-0.40;99.90
13589;DHT22;6865;52.552;13.434;2023-03-01T06:59:43;-0.10;99.90
13589;DHT22;6865;52.552;13.434;2023-03-01T07:02:14;0.40;99.90
13589;DHT22;6865;52.552;13.434;2023-03-01T07:04:41;0.60;99.90
13589;DHT22;6865;52.552;13.434;2023-03-01T07:07:08;0.80;99.90
13589;DHT22;6865;52.552;13.434;2023-03-01T07:09:35;0.80;99.90
13589;DHT22;6865;52.552;13.434;2023-03-01T07:12:02;0.90;99.90
13589;DHT22;6865;52.552;13.434;2023-03-01T07:14:28;0.50;99.90
13589;DHT22;6865;52.552;13.434;2023-03-01T07:16:55;0.30;99.90
13589;DHT22;6865;52.552;13.434;2023-03-01T07:19:22;0.10;99.90
13589;DHT22;6865;52.552;13.434;2023-03-01T07:21:49;0.30;99.90
13589;DHT22;6865;52.552;13.434;2023-03-01T07:24:15;-0.10;99.90
13589;DHT22;6865;52.552;13.434;2023-03-01T07:26:42;-0.20;99.90
13589;DHT22;6865;52.552;13.434;2023-03-01T07:29:10;-0.20;99.90
13589;DHT22;6865;52.552;13.434;2023-03-01T07:31:36;-0.20;99.90
13589;DHT22;6865;52.552;13.434;2023-03-01T07:34:03;-0.20;99.90
13589;DHT22;6865;52.552;13.434;2023-03-01T07:36:30;-0.10;99.90
13589;DHT22;6865;52.552;13.434;2023-03-01T07:38:58;-0.10;99.90
13589;DHT22;6865;52.552;13.434;2023-03-01T07:41:24;0.00;99.90
13589;DHT22;6865;52.552;13.434;2023-03-01T07:43:51;-0.20;99.90
13589;DHT22;6865;52.552;13.434;2023-03-01T07:46:18;0.20;99.90
13589;DHT22;6865;52.552;13.434;2023-03-01T07:48:45;0.30;99.90
13589;DHT22;6865;52.552;13.434;2023-03-01T07:51:12;0.40;99.90
13589;DHT22;6865;52.552;13.434;2023-03-01T07:53:39;0.50;99.90
13589;DHT22;6865;52.552;13.434;2023-03-01T07:56:11;0.60;99.90
13589;DHT22;6865;52.552;13.434;2023-03-01T07:58:40;0.80;99.90
13589;DHT22;6865;52.552;13.434;2023-03-01T08:01:14;0.90;99.90
13589;DHT22;6865;52.552;13.434;2023-03-01T08:03:41;1.10;99.90
13589;DHT22;6865;52.552;13.434;2023-03-01T08:06:12;1.20;99.90
13589;DHT22;6865;52.552;13.434;2023-03-01T08:08:40;1.20;99.90
13589;DHT22;6865;52.552;13.434;2023-03-01T08:11:09;1.30;99.90
13589;DHT22;6865;52.552;13.434;2023-03-01T08:13:36;1.40;99.90
13589;DHT22;6865;52.552;13.434;2023-03-01T08:16:06;1.50;99.90
13589;DHT22;6865;52.552;13.434;2023-03-01T08:18:33;1.70;99.90
13589;DHT22;6865;52.552;13.434;2023-03-01T08:21:04;1.90;99.90
13589;DHT22;6865;52.552;13.434;2023-03-01T08:23:31;1.90;99.90
13589;DHT22;6865;52.552;13.434;2023-03-01T08:26:16;1.80;99.90
13589;DHT22;6865;52.552;13.434;2023-03-01T08:28:43;2.20;99.90
13589;DHT22;6865;52.552;13.434;2023-03-01T08:31:31;2.40;99.90
13589;DHT22;6865;52.552;13.434;2023-03-01T08:34:00;2.60;99.90
13589;DHT22;6865;52.552;13.434;2023-03-01T08:36:29;2.70;99.90
13589;DHT22;6865;52.552;13.434;2023-03-01T08:38:57;2.80;99.90
13589;DHT22;6865;52.552;13.434;2023-03-01T08:41:24;2.90;99.90
13589;DHT22;6865;52.552;13.434;2023-03-01T08:43:51;3.00;99.90
13589;DHT22;6865;52.552;13.434;2023-03-01T08:46:19;2.90;99.90
13589;DHT22;6865;52.552;13.434;2023-03-01T08:48:45;3.00;99.90
13589;DHT22;6865;52.552;13.434;2023-03-01T08:51:15;3.20;99.90
13589;DHT22;6865;52.552;13.434;2023-03-01T08:53:43;3.30;99.90
13589;DHT22;6865;52.552;13.434;2023-03-01T08:56:10;3.40;99.90
13589;DHT22;6865;52.552;13.434;2023-03-01T08:58:37;3.10;99.90
13589;DHT22;6865;52.552;13.434;2023-03-01T09:01:13;3.10;99.90
13589;DHT22;6865;52.552;13.434;2023-03-01T09:03:40;3.40;99.90
13589;DHT22;6865;52.552;13.434;2023-03-01T09:06:08;3.50;99.90
13589;DHT22;6865;52.552;13.434;2023-03-01T09:08:36;3.60;99.90
13589;DHT22;6865;52.552;13.434;2023-03-01T09:11:04;3.60;99.90
13589;DHT22;6865;52.552;13.434;2023-03-01T09:13:31;3.70;99.90
13589;DHT22;6865;52.552;13.434;2023-03-01T09:15:59;3.90;99.90
13589;DHT22;6865;52.552;13.434;2023-03-01T09:18:27;4.10;99.90
13589;DHT22;6865;52.552;13.434;2023-03-01T09:21:20;4.10;99.90
13589;DHT22;6865;52.552;13.434;2023-03-01T09:24:04;4.30;99.90
13589;DHT22;6865;52.552;13.434;2023-03-01T09:26:31;4.30;99.90
13589;DHT22;6865;52.552;13.434;2023-03-01T09:28:58;4.40;99.90
13589;DHT22;6865;52.552;13.434;2023-03-01T09:31:25;4.50;99.90
13589;DHT22;6865;52.552;13.434;2023-03-01T09:33:53;4.70;99.90
13589;DHT22;6865;52.552;13.434;2023-03-01T09:36:22;4.80;99.90
13589;DHT22;6865;52.552;13.434;2023-03-01T09:38:50;4.90;99.90
13589;DHT22;6865;52.552;13.434;2023-03-01T09:41:42;4.90;99.90
13589;DHT22;6865;52.552;13.434;2023-03-01T09:44:23;5.00;99.90
13589;DHT22;6865;52.552;13.434;2023-03-01T09:46:53;5.00;99.90
13589;DHT22;6865;52.552;13.434;2023-03-01T09:49:23;5.10;99.90
13589;DHT22;6865;52.552;13.434;2023-03-01T09:54:26;5.50;99.90
13589;DHT22;6865;52.552;13.434;2023-03-01T10:03:01;5.40;99.90
13589;DHT22;6865;52.552;13.434;2023-03-01T10:11:04;6.00;97.50
13589;DHT22;6865;52.552;13.434;2023-03-01T10:16:22;6.10;96.20
13589;DHT22;6865;52.552;13.434;2023-03-01T10:19:01;6.10;96.90
13589;DHT22;6865;52.552;13.434;2023-03-01T10:21:29;6.30;96.40
13589;DHT22;6865;52.552;13.434;2023-03-01T10:24:11;6.00;96.70
13589;DHT22;6865;52.552;13.434;2023-03-01T10:26:54;6.10;96.30
13589;DHT22;6865;52.552;13.434;2023-03-01T10:29:30;6.20;95.80
13589;DHT22;6865;52.552;13.434;2023-03-01T10:31:58;6.30;95.30
13589;DHT22;6865;52.552;13.434;2023-03-01T10:34:30;6.30;95.10
13589;DHT22;6865;52.552;13.434;2023-03-01T10:37:01;6.30;94.80
13589;DHT22;6865;52.552;13.434;2023-03-01T10:39:34;6.40;94.40
13589;DHT22;6865;52.552;13.434;2023-03-01T10:42:04;6.40;94.00
13589;DHT22;6865;52.552;13.434;2023-03-01T10:44:43;6.50;94.20
13589;DHT22;6865;52.552;13.434;2023-03-01T10:47:14;6.60;94.10
13589;DHT22;6865;52.552;13.434;2023-03-01T10:50:02;6.60;93.40
13589;DHT22;6865;52.552;13.434;2023-03-01T10:52:36;6.70;93.00
13589;DHT22;6865;52.552;13.434;2023-03-01T10:55:26;6.70;92.30
13589;DHT22;6865;52.552;13.434;2023-03-01T10:58:08;6.60;92.30
13589;DHT22;6865;52.552;13.434;2023-03-01T11:03:28;6.80;90.90
13589;DHT22;6865;52.552;13.434;2023-03-01T11:08:43;6.60;91.20
13589;DHT22;6865;52.552;13.434;2023-03-01T11:14:03;6.90;90.80
13589;DHT22;6865;52.552;13.434;2023-03-01T11:17:02;7.00;90.00
13589;DHT22;6865;52.552;13.434;2023-03-01T11:19:30;7.00;86.20
13589;DHT22;6865;52.552;13.434;2023-03-01T11:22:08;6.90;88.00
13589;DHT22;6865;52.552;13.434;2023-03-01T11:24:41;7.10;88.00
13589;DHT22;6865;52.552;13.434;2023-03-01T11:29:56;7.20;86.90
13589;DHT22;6865;52.552;13.434;2023-03-01T11:32:27;7.30;85.40
13589;DHT22;6865;52.552;13.434;2023-03-01T11:35:02;7.10;86.30
13589;DHT22;6865;52.552;13.434;2023-03-01T11:37:40;7.10;86.90
13589;DHT22;6865;52.552;13.434;2023-03-01T11:40:15;7.40;85.10
13589;DHT22;6865;52.552;13.434;2023-03-01T11:43:02;7.60;83.90
13589;DHT22;6865;52.552;13.434;2023-03-01T11:45:43;7.60;84.30
13589;DHT22;6865;52.552;13.434;2023-03-01T11:48:28;7.60;81.00
13589;DHT22;6865;52.552;13.434;2023-03-01T11:57:08;7.30;78.90
13589;DHT22;6865;52.552;13.434;2023-03-01T11:59:44;7.40;77.80
13589;DHT22;6865;52.552;13.434;2023-03-01T12:05:47;7.40;80.40
13589;DHT22;6865;52.552;13.434;2023-03-01T12:08:33;7.80;79.30
13589;DHT22;6865;52.552;13.434;2023-03-01T12:11:25;7.80;76.40
13589;DHT22;6865;52.552;13.434;2023-03-01T12:13:58;7.80;77.80
13589;DHT22;6865;52.552;13.434;2023-03-01T12:16:53;7.90;77.30
13589;DHT22;6865;52.552;13.434;2023-03-01T12:19:38;8.00;77.20
13589;DHT22;6865;52.552;13.434;2023-03-01T12:22:35;8.10;76.50
13589;DHT22;6865;52.552;13.434;2023-03-01T12:25:39;8.20;74.10
13589;DHT22;6865;52.552;13.434;2023-03-01T12:28:11;8.10;72.50
13589;DHT22;6865;52.552;13.434;2023-03-01T12:30:58;8.10;73.20
13589;DHT22;6865;52.552;13.434;2023-03-01T12:33:50;8.20;73.10
13589;DHT22;6865;52.552;13.434;2023-03-01T12:36:31;8.30;70.70
13589;DHT22;6865;52.552;13.434;2023-03-01T12:39:33;8.30;69.50
13589;DHT22;6865;52.552;13.434;2023-03-01T12:45:07;8.30;67.60
13589;DHT22;6865;52.552;13.434;2023-03-01T12:50:42;8.30;68.50
13589;DHT22;6865;52.552;13.434;2023-03-01T12:53:24;8.30;66.60
13589;DHT22;6865;52.552;13.434;2023-03-01T12:55:55;8.30;65.70
13589;DHT22;6865;52.552;13.434;2023-03-01T13:01:40;8.50;66.80
13589;DHT22;6865;52.552;13.434;2023-03-01T13:06:56;8.60;67.70
13589;DHT22;6865;52.552;13.434;2023-03-01T13:09:37;8.70;67.10
13589;DHT22;6865;52.552;13.434;2023-03-01T13:17:49;8.80;65.50
13589;DHT22;6865;52.552;13.434;2023-03-01T13:20:23;8.80;65.70
13589;DHT22;6865;52.552;13.434;2023-03-01T13:23:12;8.50;64.80
13589;DHT22;6865;52.552;13.434;2023-03-01T13:26:01;8.70;63.60
13589;DHT22;6865;52.552;13.434;2023-03-01T13:30:58;8.60;64.70
13589;DHT22;6865;52.552;13.434;2023-03-01T13:35:56;8.20;66.00
13589;DHT22;6865;52.552;13.434;2023-03-01T13:38:47;8.40;66.30
13589;DHT22;6865;52.552;13.434;2023-03-01T13:41:17;8.30;66.40
13589;DHT22;6865;52.552;13.434;2023-03-01T13:43:46;8.30;66.30
13589;DHT22;6865;52.552;13.434;2023-03-01T13:46:20;8.40;66.80
13589;DHT22;6865;52.552;13.434;2023-03-01T13:48:53;8.40;67.50
13589;DHT22;6865;52.552;13.434;2023-03-01T13:51:26;8.50;68.50
13589;DHT22;6865;52.552;13.434;2023-03-01T13:53:55;8.60;69.30
13589;DHT22;6865;52.552;13.434;2023-03-01T13:56:28;8.80;68.90
13589;DHT22;6865;52.552;13.434;2023-03-01T13:59:02;9.20;69.40
13589;DHT22;6865;52.552;13.434;2023-03-01T14:01:34;9.40;69.70
13589;DHT22;6865;52.552;13.434;2023-03-01T14:04:03;9.70;68.70
13589;DHT22;6865;52.552;13.434;2023-03-01T14:06:32;9.90;68.30
13589;DHT22;6865;52.552;13.434;2023-03-01T14:09:09;9.80;68.00
13589;DHT22;6865;52.552;13.434;2023-03-01T14:14:57;9.80;68.00
13589;DHT22;6865;52.552;13.434;2023-03-01T14:17:55;9.60;69.10
13589;DHT22;6865;52.552;13.434;2023-03-01T14:20:31;9.50;70.30
13589;DHT22;6865;52.552;13.434;2023-03-01T14:23:07;9.40;70.40
13589;DHT22;6865;52.552;13.434;2023-03-01T14:25:36;9.30;70.40
13589;DHT22;6865;52.552;13.434;2023-03-01T14:28:24;9.10;70.80
13589;DHT22;6865;52.552;13.434;2023-03-01T14:30:55;9.00;71.90
13589;DHT22;6865;52.552;13.434;2023-03-01T14:33:28;8.90;72.00
13589;DHT22;6865;52.552;13.434;2023-03-01T14:36:00;8.50;73.20
13589;DHT22;6865;52.552;13.434;2023-03-01T14:38:42;8.50;73.80
13589;DHT22;6865;52.552;13.434;2023-03-01T14:41:20;8.60;73.90
13589;DHT22;6865;52.552;13.434;2023-03-01T14:44:03;8.70;73.40
13589;DHT22;6865;52.552;13.434;2023-03-01T14:46:43;8.80;73.70
13589;DHT22;6865;52.552;13.434;2023-03-01T14:49:16;8.70;73.40
13589;DHT22;6865;52.552;13.434;2023-03-01T14:51:59;8.70;73.70
13589;DHT22;6865;52.552;13.434;2023-03-01T14:54:44;8.70;73.70
13589;DHT22;6865;52.552;13.434;2023-03-01T14:57:16;8.60;73.80
13589;DHT22;6865;52.552;13.434;2023-03-01T14:59:43;8.60;74.00
13589;DHT22;6865;52.552;13.434;2023-03-01T15:02:15;8.50;74.50
13589;DHT22;6865;52.552;13.434;2023-03-01T15:04:48;8.40;74.90
13589;DHT22;6865;52.552;13.434;2023-03-01T15:07:15;8.50;75.00
13589;DHT22;6865;52.552;13.434;2023-03-01T15:09:43;8.40;74.60
13589;DHT22;6865;52.552;13.434;2023-03-01T15:14:57;8.30;75.00
13589;DHT22;6865;52.552;13.434;2023-03-01T15:17:35;8.10;75.10
13589;DHT22;6865;52.552;13.434;2023-03-01T15:20:05;8.30;75.50
13589;DHT22;6865;52.552;13.434;2023-03-01T15:22:33;8.40;75.40
13589;DHT22;6865;52.552;13.434;2023-03-01T15:25:01;8.50;75.30
13589;DHT22;6865;52.552;13.434;2023-03-01T15:27:28;8.50;74.90
13589;DHT22;6865;52.552;13.434;2023-03-01T15:29:59;8.40;75.00
13589;DHT22;6865;52.552;13.434;2023-03-01T15:32:36;8.50;75.40
13589;DHT22;6865;52.552;13.434;2023-03-01T15:35:40;8.10;76.00
13589;DHT22;6865;52.552;13.434;2023-03-01T15:38:34;8.20;75.70
13589;DHT22;6865;52.552;13.434;2023-03-01T15:41:21;8.10;76.00
13589;DHT22;6865;52.552;13.434;2023-03-01T15:43:48;8.00;76.50
13589;DHT22;6865;52.552;13.434;2023-03-01T15:49:23;7.90;77.40
13589;DHT22;6865;52.552;13.434;2023-03-01T15:51:45;7.80;77.70
13589;DHT22;6865;52.552;13.434;2023-03-01T15:54:18;7.70;78.00
13589;DHT22;6865;52.552;13.434;2023-03-01T15:56:45;7.60;78.60
13589;DHT22;6865;52.552;13.434;2023-03-01T15:59:12;7.50;79.20
13589;DHT22;6865;52.552;13.434;2023-03-01T16:01:45;7.40;79.30
13589;DHT22;6865;52.552;13.434;2023-03-01T16:04:17;7.40;79.50
13589;DHT22;6865;52.552;13.434;2023-03-01T16:06:47;7.10;79.30
13589;DHT22;6865;52.552;13.434;2023-03-01T16:09:25;7.50;79.60
13589;DHT22;6865;52.552;13.434;2023-03-01T16:11:53;7.50;79.40
13589;DHT22;6865;52.552;13.434;2023-03-01T16:14:20;7.40;80.00
13589;DHT22;6865;52.552;13.434;2023-03-01T16:16:48;7.10;80.20
13589;DHT22;6865;52.552;13.434;2023-03-01T16:19:15;7.30;80.70
13589;DHT22;6865;52.552;13.434;2023-03-01T16:21:43;7.20;80.90
13589;DHT22;6865;52.552;13.434;2023-03-01T16:24:14;7.10;81.50
13589;DHT22;6865;52.552;13.434;2023-03-01T16:26:40;7.10;82.00
13589;DHT22;6865;52.552;13.434;2023-03-01T16:29:08;7.00;82.60
13589;DHT22;6865;52.552;13.434;2023-03-01T16:31:35;6.90;83.00
13589;DHT22;6865;52.552;13.434;2023-03-01T16:34:02;6.70;83.20
13589;DHT22;6865;52.552;13.434;2023-03-01T16:36:29;6.60;83.80
13589;DHT22;6865;52.552;13.434;2023-03-01T16:38:58;6.50;84.10
13589;DHT22;6865;52.552;13.434;2023-03-01T16:41:28;6.30;84.70
13589;DHT22;6865;52.552;13.434;2023-03-01T16:43:56;6.30;85.10
13589;DHT22;6865;52.552;13.434;2023-03-01T16:46:25;6.20;85.60
13589;DHT22;6865;52.552;13.434;2023-03-01T16:48:53;6.20;85.80
13589;DHT22;6865;52.552;13.434;2023-03-01T16:51:21;6.10;86.50
13589;DHT22;6865;52.552;13.434;2023-03-01T16:53:48;6.00;86.70
13589;DHT22;6865;52.552;13.434;2023-03-01T16:56:16;6.10;86.80
13589;DHT22;6865;52.552;13.434;2023-03-01T16:58:43;6.10;87.10
13589;DHT22;6865;52.552;13.434;2023-03-01T17:01:16;6.00;87.40
13589;DHT22;6865;52.552;13.434;2023-03-01T17:03:44;5.80;87.50
13589;DHT22;6865;52.552;13.434;2023-03-01T17:06:15;5.90;88.00
13589;DHT22;6865;52.552;13.434;2023-03-01T17:08:42;5.80;88.20
13589;DHT22;6865;52.552;13.434;2023-03-01T17:11:15;5.80;88.70
13589;DHT22;6865;52.552;13.434;2023-03-01T17:13:42;5.80;89.10
13589;DHT22;6865;52.552;13.434;2023-03-01T17:16:11;5.70;89.50
13589;DHT22;6865;52.552;13.434;2023-03-01T17:18:38;5.60;90.20
13589;DHT22;6865;52.552;13.434;2023-03-01T17:21:05;5.40;90.20